createdAt,value
2023-03-31T00:01:24.998Z,48.01
2023-03-31T00:04:02.078Z,48.22
2023-03-31T00:06:32.635Z,48.17
2023-03-31T00:09:02.059Z,48.16
2023-03-31T00:11:30.032Z,48.04
2023-03-31T00:13:57.962Z,48.17
2023-03-31T00:16:26.652Z,47.97
2023-03-31T00:18:55.397Z,48.00
2023-03-31T00:21:25.319Z,47.98
2023-03-31T00:23:57.009Z,47.86
2023-03-31T00:26:26.310Z,47.81
2023-03-31T00:28:55.076Z,47.66
2023-03-31T00:31:24.209Z,47.63
2023-03-31T00:33:51.928Z,47.70
2023-03-31T00:36:29.931Z,47.76
2023-03-31T00:39:02.527Z,47.88
2023-03-31T00:41:31.611Z,47.92
2023-03-31T00:44:13.230Z,47.83
2023-03-31T00:47:02.431Z,47.96
2023-03-31T00:49:58.007Z,48.04
2023-03-31T00:52:37.987Z,48.04
2023-03-31T00:55:14.047Z,48.23
2023-03-31T00:57:44.698Z,47.92
2023-03-31T01:00:18.832Z,47.88
2023-03-31T01:02:55.839Z,47.94
2023-03-31T01:05:31.308Z,47.63
2023-03-31T01:08:00.487Z,47.68
2023-03-31T01:10:30.183Z,47.69
2023-03-31T01:12:58.906Z,47.72
2023-03-31T01:15:27.067Z,48.13
2023-03-31T01:17:56.079Z,48.33
2023-03-31T01:20:27.335Z,48.45
2023-03-31T01:23:22.515Z,48.45
2023-03-31T01:26:28.468Z,48.59
2023-03-31T01:29:17.727Z,48.71
2023-03-31T01:31:51.100Z,48.75
2023-03-31T01:34:37.008Z,48.46
2023-03-31T01:37:53.393Z,48.66
2023-03-31T01:40:41.865Z,48.75
2023-03-31T01:43:26.473Z,48.81
2023-03-31T01:46:10.485Z,48.87
2023-03-31T01:49:21.084Z,48.79
2023-03-31T01:52:06.811Z,48.85
2023-03-31T01:55:04.002Z,48.91
2023-03-31T01:57:45.546Z,49.00
2023-03-31T02:00:18.227Z,48.91
2023-03-31T02:03:12.698Z,48.73
2023-03-31T02:05:51.585Z,49.03
2023-03-31T02:08:32.175Z,48.69
2023-03-31T02:11:00.919Z,48.78
2023-03-31T02:13:30.436Z,48.61
2023-03-31T02:16:06.892Z,48.69
2023-03-31T02:18:38.514Z,48.57
2023-03-31T02:21:08.812Z,48.40
2023-03-31T02:23:38.490Z,48.46
2023-03-31T02:26:31.323Z,48.31
2023-03-31T02:28:59.756Z,48.35
2023-03-31T02:32:09.897Z,48.47
2023-03-31T02:34:37.995Z,48.51
2023-03-31T02:37:06.569Z,48.47
2023-03-31T02:39:38.894Z,48.43
2023-03-31T02:42:09.980Z,48.45
2023-03-31T02:44:39.705Z,48.59
2023-03-31T02:47:15.530Z,48.58
2023-03-31T02:49:57.770Z,48.50
2023-03-31T02:53:30.889Z,48.64
2023-03-31T02:56:24.714Z,48.57
2023-03-31T02:59:10.464Z,48.52
2023-03-31T03:01:44.453Z,48.73
2023-03-31T03:04:26.905Z,48.63
2023-03-31T03:07:26.695Z,48.66
2023-03-31T03:10:10.438Z,48.75
2023-03-31T03:13:13.703Z,48.66
2023-03-31T03:16:24.520Z,48.92
2023-03-31T03:19:01.788Z,49.17
2023-03-31T03:21:30.863Z,49.16
2023-03-31T03:24:00.226Z,49.41
2023-03-31T03:26:28.567Z,49.28
2023-03-31T03:28:57.494Z,49.47
2023-03-31T03:31:25.953Z,49.63
2023-03-31T03:33:54.200Z,49.52
2023-03-31T03:36:23.093Z,49.51
2023-03-31T03:38:51.036Z,49.60
2023-03-31T03:41:18.791Z,49.49
2023-03-31T03:43:46.707Z,49.68
2023-03-31T03:46:14.517Z,49.61
2023-03-31T03:48:42.402Z,49.71
2023-03-31T03:51:10.431Z,49.79
2023-03-31T03:53:38.252Z,49.81
2023-03-31T03:56:06.739Z,49.89
2023-03-31T03:58:36.042Z,49.86
2023-03-31T04:01:04.303Z,49.99
2023-03-31T04:03:32.309Z,50.17
2023-03-31T04:06:00.149Z,50.13
2023-03-31T04:08:27.809Z,50.30
2023-03-31T04:10:55.851Z,50.08
2023-03-31T04:13:24.090Z,50.16
2023-03-31T04:15:53.037Z,50.20
2023-03-31T04:18:23.824Z,50.20
2023-03-31T04:21:05.629Z,50.28
2023-03-31T04:23:34.806Z,50.36
2023-03-31T04:26:03.881Z,50.39
2023-03-31T04:28:34.895Z,50.21
2023-03-31T04:31:06.182Z,50.19
2023-03-31T04:33:34.187Z,50.36
2023-03-31T04:36:07.410Z,50.26
2023-03-31T04:38:35.545Z,50.16
2023-03-31T04:41:03.329Z,50.17
2023-03-31T04:43:31.233Z,50.42
2023-03-31T04:45:59.261Z,50.18
2023-03-31T04:48:27.250Z,50.15
2023-03-31T04:50:54.948Z,50.18
2023-03-31T04:53:22.983Z,50.06
2023-03-31T04:55:50.984Z,50.22
2023-03-31T04:58:19.871Z,50.27
2023-03-31T05:00:49.464Z,50.46
2023-03-31T05:03:19.629Z,50.39
2023-03-31T05:05:49.395Z,50.61
2023-03-31T05:08:17.293Z,50.73
2023-03-31T05:10:45.181Z,50.71
2023-03-31T05:13:12.888Z,50.99
2023-03-31T05:15:41.613Z,50.98
2023-03-31T05:18:09.300Z,51.25
2023-03-31T05:20:37.021Z,51.11
2023-03-31T05:23:04.777Z,51.40
2023-03-31T05:25:33.513Z,51.26
2023-03-31T05:28:02.446Z,51.44
2023-03-31T05:30:30.400Z,51.41
2023-03-31T05:32:58.205Z,51.58
2023-03-31T05:35:26.551Z,51.75
2023-03-31T05:37:54.727Z,51.88
2023-03-31T05:40:24.349Z,52.04
2023-03-31T05:42:52.104Z,51.97
2023-03-31T05:45:19.933Z,52.22
2023-03-31T05:47:47.855Z,52.24
2023-03-31T05:50:18.103Z,52.42
2023-03-31T05:52:46.426Z,52.47
2023-03-31T05:55:14.302Z,52.33
2023-03-31T05:57:42.007Z,52.65
2023-03-31T06:00:17.484Z,52.76
2023-03-31T06:02:47.086Z,52.81
2023-03-31T06:05:14.946Z,52.83
2023-03-31T06:07:42.824Z,52.98
2023-03-31T06:10:10.958Z,53.06
2023-03-31T06:12:38.861Z,53.14
2023-03-31T06:15:07.621Z,53.21
2023-03-31T06:17:38.722Z,53.23
2023-03-31T06:20:23.970Z,53.39
2023-03-31T06:22:55.887Z,53.59
2023-03-31T06:25:24.714Z,53.38
2023-03-31T06:27:52.600Z,53.54
2023-03-31T06:30:20.584Z,53.79
2023-03-31T06:32:51.298Z,53.91
2023-03-31T06:35:19.088Z,53.97
2023-03-31T06:37:46.765Z,54.28
2023-03-31T06:40:16.015Z,54.26
2023-03-31T06:42:44.230Z,54.33
2023-03-31T06:45:11.976Z,54.36
2023-03-31T06:47:41.434Z,54.44
2023-03-31T06:50:13.104Z,54.43
2023-03-31T06:52:40.941Z,54.56
2023-03-31T06:55:09.622Z,54.49
2023-03-31T06:57:37.763Z,54.61
2023-03-31T07:00:07.751Z,54.68
2023-03-31T07:02:37.534Z,54.72
2023-03-31T07:05:08.273Z,54.92
2023-03-31T07:07:43.285Z,54.75
2023-03-31T07:10:15.006Z,54.90
2023-03-31T07:12:43.848Z,55.11
2023-03-31T07:15:11.787Z,55.23
2023-03-31T07:17:42.274Z,55.25
2023-03-31T07:20:15.044Z,55.32
2023-03-31T07:22:47.839Z,55.44
2023-03-31T07:25:17.941Z,55.50
2023-03-31T07:27:45.737Z,55.42
2023-03-31T07:30:20.067Z,55.53
2023-03-31T07:32:50.271Z,55.69
2023-03-31T07:35:19.950Z,55.78
2023-03-31T07:37:49.688Z,55.87
2023-03-31T07:40:30.981Z,55.69
2023-03-31T07:43:01.928Z,55.80
2023-03-31T07:45:29.630Z,55.57
2023-03-31T07:47:57.556Z,55.19
2023-03-31T07:50:25.421Z,54.79
2023-03-31T07:52:57.130Z,54.41
2023-03-31T07:55:30.718Z,54.14
2023-03-31T07:58:01.611Z,53.84
2023-03-31T08:00:32.920Z,53.91
2023-03-31T08:03:01.136Z,54.08
2023-03-31T08:05:29.028Z,53.95
2023-03-31T08:07:56.680Z,53.69
2023-03-31T08:10:28.738Z,53.20
2023-03-31T08:12:56.610Z,53.24
2023-03-31T08:15:26.126Z,52.78
2023-03-31T08:17:54.047Z,52.73
2023-03-31T08:20:25.018Z,52.62
2023-03-31T08:22:53.604Z,52.37
2023-03-31T08:25:22.153Z,52.36
2023-03-31T08:27:51.593Z,52.05
2023-03-31T08:30:20.557Z,51.92
2023-03-31T08:32:50.783Z,51.87
2023-03-31T08:35:20.523Z,51.73
2023-03-31T08:37:48.470Z,51.81
2023-03-31T08:40:23.804Z,51.40
2023-03-31T08:43:00.580Z,51.34
2023-03-31T08:45:39.665Z,50.81
2023-03-31T08:48:29.805Z,50.52
2023-03-31T08:51:21.720Z,50.51
2023-03-31T08:54:08.267Z,50.47
2023-03-31T08:56:44.407Z,50.40
2023-03-31T08:59:40.607Z,50.08
2023-03-31T09:02:40.114Z,50.03
2023-03-31T09:06:08.396Z,49.85
2023-03-31T09:08:44.797Z,49.71
2023-03-31T09:11:38.298Z,49.36
2023-03-31T09:14:30.332Z,49.09
2023-03-31T09:17:26.442Z,48.65
2023-03-31T09:20:09.834Z,48.79
2023-03-31T09:23:25.541Z,48.59
2023-03-31T09:25:55.531Z,48.30
2023-03-31T09:28:40.594Z,48.10
2023-03-31T09:31:16.362Z,47.83
2023-03-31T09:33:49.479Z,47.52
2023-03-31T09:36:24.925Z,46.94
2023-03-31T09:38:57.543Z,46.98
2023-03-31T09:41:26.044Z,46.41
2023-03-31T09:43:53.839Z,46.36
2023-03-31T09:46:35.432Z,46.06
2023-03-31T09:49:19.809Z,46.00
2023-03-31T09:52:01.626Z,45.85
2023-03-31T09:54:43.981Z,45.33
2023-03-31T09:57:35.079Z,44.42
2023-03-31T10:00:17.827Z,44.09
2023-03-31T10:02:56.148Z,44.44
2023-03-31T10:05:36.559Z,44.03
2023-03-31T10:08:23.703Z,43.32
2023-03-31T10:10:56.891Z,43.91
2023-03-31T10:13:35.668Z,42.55
2023-03-31T10:16:14.689Z,42.45
2023-03-31T10:18:43.667Z,43.00
2023-03-31T10:21:27.198Z,42.16
2023-03-31T10:23:56.256Z,42.07
2023-03-31T10:26:28.662Z,42.03
2023-03-31T10:28:58.906Z,41.43
2023-03-31T10:31:35.620Z,41.12
2023-03-31T10:34:16.975Z,40.43
2023-03-31T10:36:53.663Z,41.22
2023-03-31T10:39:31.055Z,40.95
2023-03-31T10:42:01.143Z,40.23
2023-03-31T10:44:35.459Z,40.10
2023-03-31T10:47:22.076Z,40.08
2023-03-31T10:49:57.816Z,42.47
2023-03-31T10:52:49.372Z,43.65
2023-03-31T10:55:30.083Z,44.93
2023-03-31T10:59:10.418Z,46.55
2023-03-31T11:01:48.137Z,47.89
2023-03-31T11:04:40.632Z,49.21
2023-03-31T11:07:45.534Z,50.39
2023-03-31T11:10:28.300Z,51.00
2023-03-31T11:13:17.470Z,51.08
2023-03-31T11:16:22.841Z,51.37
2023-03-31T11:18:56.523Z,50.84
2023-03-31T11:21:43.631Z,50.32
2023-03-31T11:24:57.896Z,49.63
2023-03-31T11:28:08.707Z,48.52
2023-03-31T11:31:03.318Z,48.11
2023-03-31T11:34:08.878Z,47.88
2023-03-31T11:36:59.585Z,47.36
2023-03-31T11:39:40.794Z,47.03
2023-03-31T11:42:18.267Z,46.60
2023-03-31T11:44:54.948Z,46.66
2023-03-31T11:47:33.027Z,46.68
2023-03-31T11:50:17.456Z,45.90
2023-03-31T11:53:06.255Z,45.43
2023-03-31T11:55:35.763Z,45.37
2023-03-31T11:58:16.023Z,44.83
2023-03-31T12:01:05.218Z,44.76
2023-03-31T12:04:01.854Z,45.12
2023-03-31T12:06:43.006Z,45.29
2023-03-31T12:09:29.536Z,45.17
2023-03-31T12:12:18.648Z,44.67
2023-03-31T12:15:13.556Z,44.45
2023-03-31T12:17:49.457Z,44.32
2023-03-31T12:20:55.614Z,43.75
2023-03-31T12:23:33.088Z,44.03
2023-03-31T12:26:59.477Z,43.60
2023-03-31T12:29:39.554Z,43.97
2023-03-31T12:32:24.064Z,43.48
2023-03-31T12:35:00.317Z,43.44
2023-03-31T12:38:05.802Z,43.27
2023-03-31T12:40:41.235Z,43.35
2023-03-31T12:43:47.095Z,43.33
2023-03-31T12:47:15.162Z,43.02
2023-03-31T12:50:40.010Z,43.19
2023-03-31T12:53:36.244Z,43.31
2023-03-31T12:56:04.487Z,43.24
2023-03-31T12:58:37.388Z,43.06
2023-03-31T13:01:17.621Z,42.96
2023-03-31T13:04:07.036Z,42.59
2023-03-31T13:06:37.650Z,43.08
2023-03-31T13:09:37.723Z,42.77
2023-03-31T13:12:16.200Z,42.69
2023-03-31T13:14:47.807Z,42.60
2023-03-31T13:17:26.455Z,42.23
2023-03-31T13:19:56.201Z,42.50
2023-03-31T13:22:36.219Z,42.08
2023-03-31T13:25:33.387Z,42.02
2023-03-31T13:28:13.908Z,42.28
2023-03-31T13:30:41.622Z,42.60
2023-03-31T13:33:40.662Z,41.99
2023-03-31T13:36:58.366Z,42.27
2023-03-31T13:39:56.285Z,42.27
2023-03-31T13:42:51.596Z,42.13
2023-03-31T13:46:15.697Z,42.20
2023-03-31T13:49:25.721Z,42.21
2023-03-31T13:52:03.901Z,42.18
2023-03-31T13:55:05.092Z,42.23
2023-03-31T13:58:24.971Z,42.61
2023-03-31T14:01:27.720Z,42.94
2023-03-31T14:04:49.839Z,43.57
2023-03-31T14:07:31.754Z,43.71
2023-03-31T14:09:59.809Z,43.41
2023-03-31T14:12:35.779Z,43.58
2023-03-31T14:15:07.089Z,43.11
2023-03-31T14:17:41.111Z,43.32
2023-03-31T14:20:29.416Z,43.41
2023-03-31T14:23:40.098Z,43.89
2023-03-31T14:27:31.008Z,44.11
2023-03-31T14:30:27.247Z,44.39
2023-03-31T14:33:26.898Z,44.68
2023-03-31T14:36:47.493Z,44.94
2023-03-31T14:39:21.822Z,45.01
2023-03-31T14:41:55.549Z,45.32
2023-03-31T14:44:26.435Z,45.47
2023-03-31T14:46:58.346Z,45.47
2023-03-31T14:49:36.886Z,45.67
2023-03-31T14:52:25.682Z,45.77
2023-03-31T14:54:53.851Z,45.73
2023-03-31T14:57:32.857Z,45.68
2023-03-31T15:00:06.247Z,45.81
2023-03-31T15:02:41.709Z,45.52
2023-03-31T15:05:24.242Z,45.57
2023-03-31T15:07:52.340Z,45.64
2023-03-31T15:10:22.082Z,45.62
2023-03-31T15:12:51.716Z,45.73
2023-03-31T15:15:21.113Z,45.46
2023-03-31T15:17:49.136Z,45.43
2023-03-31T15:20:31.797Z,45.45
2023-03-31T15:23:18.677Z,45.43
2023-03-31T15:25:46.791Z,45.47
2023-03-31T15:28:17.884Z,45.61
2023-03-31T15:30:50.383Z,46.23
2023-03-31T15:33:36.587Z,46.50
2023-03-31T15:36:04.972Z,46.50
2023-03-31T15:38:32.941Z,46.68
2023-03-31T15:41:03.267Z,46.64
2023-03-31T15:43:47.830Z,46.74
2023-03-31T15:46:44.719Z,46.86
2023-03-31T15:49:24.288Z,46.82
2023-03-31T15:51:56.929Z,46.92
2023-03-31T15:54:42.657Z,47.12
2023-03-31T15:57:22.084Z,47.20
2023-03-31T15:59:56.697Z,47.13
2023-03-31T16:02:46.980Z,47.24
2023-03-31T16:05:53.528Z,47.31
2023-03-31T16:08:48.526Z,47.35
2023-03-31T16:11:35.818Z,47.39
2023-03-31T16:14:56.984Z,47.38
2023-03-31T16:17:34.392Z,47.52
2023-03-31T16:20:16.754Z,47.68
2023-03-31T16:22:50.284Z,48.11
2023-03-31T16:25:24.024Z,48.43
2023-03-31T16:27:57.004Z,48.48
2023-03-31T16:30:44.912Z,48.63
2023-03-31T16:33:54.790Z,48.61
2023-03-31T16:36:42.873Z,48.67
2023-03-31T16:39:10.845Z,49.00
2023-03-31T16:41:39.553Z,48.75
2023-03-31T16:44:08.853Z,48.75
2023-03-31T16:46:39.453Z,48.58
2023-03-31T16:49:07.433Z,48.72
2023-03-31T16:51:35.322Z,48.66
2023-03-31T16:54:03.404Z,48.90
2023-03-31T16:56:31.504Z,49.11
2023-03-31T16:58:59.218Z,49.54
2023-03-31T17:01:27.179Z,50.09
2023-03-31T17:03:57.438Z,50.14
2023-03-31T17:06:25.429Z,50.31
2023-03-31T17:08:54.707Z,50.39
2023-03-31T17:11:23.729Z,50.68
2023-03-31T17:13:52.651Z,51.13
2023-03-31T17:16:32.952Z,51.54
2023-03-31T17:19:13.671Z,51.57
2023-03-31T17:21:41.936Z,51.91
2023-03-31T17:24:11.424Z,51.59
2023-03-31T17:26:39.510Z,51.54
2023-03-31T17:29:07.388Z,51.51
2023-03-31T17:31:37.377Z,51.49
2023-03-31T17:34:06.858Z,51.51
2023-03-31T17:36:34.720Z,51.36
2023-03-31T17:39:05.094Z,51.47
2023-03-31T17:41:33.009Z,51.27
2023-03-31T17:44:01.204Z,51.37
2023-03-31T17:46:29.064Z,51.34
2023-03-31T17:48:58.427Z,51.31
2023-03-31T17:51:27.670Z,51.05
2023-03-31T17:53:56.415Z,51.25
2023-03-31T17:56:24.783Z,51.14
2023-03-31T17:58:53.676Z,51.15
2023-03-31T18:01:21.728Z,51.10
2023-03-31T18:03:49.643Z,51.05
2023-03-31T18:06:17.731Z,51.13
2023-03-31T18:08:47.325Z,51.04
2023-03-31T18:11:15.578Z,51.05
2023-03-31T18:13:43.635Z,51.08
2023-03-31T18:16:13.231Z,50.97
2023-03-31T18:18:45.150Z,51.05
2023-03-31T18:21:14.247Z,50.89
2023-03-31T18:23:48.356Z,50.91
2023-03-31T18:26:16.425Z,50.91
2023-03-31T18:28:44.132Z,51.16
2023-03-31T18:31:13.097Z,50.98
2023-03-31T18:33:42.535Z,51.08
2023-03-31T18:36:18.760Z,51.12
2023-03-31T18:38:48.324Z,51.32
2023-03-31T18:41:19.422Z,51.42
2023-03-31T18:43:47.820Z,51.58
2023-03-31T18:46:17.257Z,51.68
2023-03-31T18:48:46.269Z,51.82
2023-03-31T18:51:14.977Z,51.91
2023-03-31T18:53:44.062Z,52.04
2023-03-31T18:56:12.858Z,51.92
2023-03-31T18:58:40.679Z,52.07
2023-03-31T19:01:08.564Z,52.04
2023-03-31T19:03:36.504Z,52.24
2023-03-31T19:06:11.050Z,52.13
2023-03-31T19:08:44.314Z,52.00
2023-03-31T19:11:15.665Z,52.10
2023-03-31T19:13:44.475Z,52.44
2023-03-31T19:16:14.356Z,53.16
2023-03-31T19:18:43.606Z,53.39
2023-03-31T19:21:12.039Z,53.25
2023-03-31T19:23:40.115Z,53.65
2023-03-31T19:26:08.995Z,53.47
2023-03-31T19:28:37.404Z,53.24
2023-03-31T19:31:05.743Z,53.27
2023-03-31T19:33:35.603Z,53.27
2023-03-31T19:36:03.946Z,53.43
2023-03-31T19:38:34.931Z,53.54
2023-03-31T19:41:05.077Z,53.33
2023-03-31T19:43:33.815Z,53.41
2023-03-31T19:46:02.304Z,53.55
2023-03-31T19:48:33.694Z,53.53
2023-03-31T19:51:06.543Z,53.38
2023-03-31T19:53:37.132Z,53.40
2023-03-31T19:56:09.372Z,53.35
2023-03-31T19:58:37.792Z,53.41
2023-03-31T20:01:18.009Z,53.36
2023-03-31T20:03:46.846Z,53.37
2023-03-31T20:06:16.284Z,53.53
2023-03-31T20:08:44.301Z,53.63
2023-03-31T20:11:16.070Z,53.58
2023-03-31T20:13:44.367Z,53.80
2023-03-31T20:16:19.033Z,53.72
2023-03-31T20:19:01.456Z,53.89
2023-03-31T20:21:35.389Z,53.99
2023-03-31T20:24:04.605Z,54.07
2023-03-31T20:26:34.196Z,54.05
2023-03-31T20:29:03.680Z,54.11
2023-03-31T20:31:39.075Z,54.19
2023-03-31T20:34:13.983Z,54.14
2023-03-31T20:36:45.520Z,54.21
2023-03-31T20:39:14.925Z,54.49
2023-03-31T20:41:43.743Z,54.43
2023-03-31T20:44:15.542Z,54.19
2023-03-31T20:46:45.443Z,54.13
2023-03-31T20:49:14.016Z,54.32
2023-03-31T20:51:42.531Z,54.17
2023-03-31T20:54:10.748Z,54.07
2023-03-31T20:56:41.342Z,54.04
2023-03-31T20:59:15.392Z,54.06
2023-03-31T21:01:45.298Z,54.16
2023-03-31T21:04:13.912Z,53.99
2023-03-31T21:06:45.330Z,53.93
2023-03-31T21:09:17.303Z,54.02
2023-03-31T21:11:45.769Z,53.94
2023-03-31T21:14:16.353Z,53.81
2023-03-31T21:16:45.064Z,53.78
2023-03-31T21:19:13.009Z,53.88
2023-03-31T21:21:41.812Z,53.81
2023-03-31T21:24:12.501Z,53.88
2023-03-31T21:26:40.803Z,54.13
2023-03-31T21:29:08.508Z,54.09
2023-03-31T21:31:36.560Z,54.13
2023-03-31T21:34:05.231Z,54.15
2023-03-31T21:36:33.204Z,54.07
2023-03-31T21:39:01.272Z,54.06
2023-03-31T21:41:31.299Z,53.90
2023-03-31T21:44:01.739Z,54.03
2023-03-31T21:46:33.545Z,54.07
2023-03-31T21:49:02.735Z,54.12
2023-03-31T21:51:30.579Z,54.08
2023-03-31T21:53:58.454Z,53.99
2023-03-31T21:56:28.301Z,53.87
2023-03-31T21:59:01.174Z,53.84
2023-03-31T22:01:29.801Z,53.76
2023-03-31T22:03:59.158Z,53.67
2023-03-31T22:06:27.141Z,53.61
2023-03-31T22:08:54.949Z,53.72
2023-03-31T22:11:23.575Z,53.67
2023-03-31T22:13:51.410Z,53.81
2023-03-31T22:16:22.142Z,53.71
2023-03-31T22:18:51.555Z,53.75
2023-03-31T22:21:25.892Z,53.59
2023-03-31T22:23:59.160Z,53.62
2023-03-31T22:26:29.794Z,53.62
2023-03-31T22:28:58.778Z,53.54
2023-03-31T22:31:46.544Z,53.57
2023-03-31T22:34:15.473Z,53.60
2023-03-31T22:36:43.213Z,53.73
2023-03-31T22:39:11.198Z,53.69
2023-03-31T22:41:39.100Z,53.66
2023-03-31T22:44:07.694Z,53.65
2023-03-31T22:46:36.976Z,53.55
2023-03-31T22:49:05.818Z,53.53
2023-03-31T22:51:34.758Z,53.42
2023-03-31T22:54:02.771Z,53.44
2023-03-31T22:56:30.906Z,53.42
2023-03-31T22:59:00.446Z,53.41
2023-03-31T23:01:28.518Z,53.30
2023-03-31T23:03:56.561Z,53.16
2023-03-31T23:06:24.506Z,53.18
2023-03-31T23:08:52.484Z,53.16
2023-03-31T23:11:20.887Z,53.14
2023-03-31T23:13:48.793Z,53.00
2023-03-31T23:16:23.341Z,52.92
2023-03-31T23:18:54.226Z,53.02
2023-03-31T23:21:26.138Z,53.23
2023-03-31T23:23:58.655Z,52.91
2023-03-31T23:26:27.836Z,53.05
2023-03-31T23:28:57.352Z,52.82
2023-03-31T23:31:29.260Z,52.85
2023-03-31T23:34:00.828Z,52.70
2023-03-31T23:36:29.214Z,52.77
2023-03-31T23:38:57.247Z,52.75
2023-03-31T23:41:27.062Z,52.60
2023-03-31T23:43:57.528Z,52.62
2023-03-31T23:46:26.067Z,52.76
2023-03-31T23:48:54.184Z,52.73
2023-03-31T23:51:21.921Z,52.60
2023-03-31T23:53:50.171Z,52.74
2023-03-31T23:56:18.347Z,52.56
2023-03-31T23:58:47.178Z,52.53
